sensor_id;sensor_type;location;lat;lon;timestamp;P1;durP1;ratioP1;P2;durP2;ratioP2
48647;SDS011;34437;-33.956;151.076;2022-12-18T00:00:08;5.95;;;2.28;;
48647;SDS011;34437;-33.956;151.076;2022-12-18T00:02:32;4.57;;;1.23;;
48647;SDS011;34437;-33.956;151.076;2022-12-18T00:04:54;2.72;;;1.05;;
48647;SDS011;34437;-33.956;151.076;2022-12-18T00:07:17;4.05;;;1.40;;
48647;SDS011;34437;-33.956;151.076;2022-12-18T00:09:39;1.77;;;0.90;;
48647;SDS011;34437;-33.956;151.076;2022-12-18T00:12:02;5.03;;;1.50;;
48647;SDS011;34437;-33.956;151.076;2022-12-18T00:14:25;6.05;;;1.88;;
48647;SDS011;34437;-33.956;151.076;2022-12-18T00:16:47;4.65;;;1.52;;
48647;SDS011;34437;-33.956;151.076;2022-12-18T00:19:10;16.50;;;1.42;;
48647;SDS011;34437;-33.956;151.076;2022-12-18T00:21:33;2.30;;;1.00;;
48647;SDS011;34437;-33.956;151.076;2022-12-18T00:23:56;3.78;;;0.93;;
48647;SDS011;34437;-33.956;151.076;2022-12-18T00:26:21;1.80;;;0.70;;
48647;SDS011;34437;-33.956;151.076;2022-12-18T00:28:46;3.55;;;1.13;;
48647;SDS011;34437;-33.956;151.076;2022-12-18T00:31:10;2.50;;;0.80;;
48647;SDS011;34437;-33.956;151.076;2022-12-18T00:33:37;2.92;;;0.63;;
48647;SDS011;34437;-33.956;151.076;2022-12-18T00:36:00;0.77;;;0.47;;
48647;SDS011;34437;-33.956;151.076;2022-12-18T00:38:27;1.33;;;0.70;;
48647;SDS011;34437;-33.956;151.076;2022-12-18T00:40:50;2.67;;;0.73;;
48647;SDS011;34437;-33.956;151.076;2022-12-18T00:43:12;1.73;;;0.80;;
48647;SDS011;34437;-33.956;151.076;2022-12-18T00:45:35;1.50;;;1.20;;
48647;SDS011;34437;-33.956;151.076;2022-12-18T00:47:57;0.88;;;0.50;;
48647;SDS011;34437;-33.956;151.076;2022-12-18T00:50:21;1.00;;;0.80;;
48647;SDS011;34437;-33.956;151.076;2022-12-18T00:52:45;2.55;;;0.73;;
48647;SDS011;34437;-33.956;151.076;2022-12-18T00:55:08;2.28;;;0.55;;
48647;SDS011;34437;-33.956;151.076;2022-12-18T00:57:31;1.77;;;0.70;;
48647;SDS011;34437;-33.956;151.076;2022-12-18T00:59:53;0.90;;;0.60;;
48647;SDS011;34437;-33.956;151.076;2022-12-18T01:02:16;1.20;;;0.57;;
48647;SDS011;34437;-33.956;151.076;2022-12-18T01:04:38;1.45;;;0.47;;
48647;SDS011;34437;-33.956;151.076;2022-12-18T01:07:01;1.42;;;0.50;;
48647;SDS011;34437;-33.956;151.076;2022-12-18T01:09:24;0.88;;;0.55;;
48647;SDS011;34437;-33.956;151.076;2022-12-18T01:11:47;1.55;;;0.52;;
48647;SDS011;34437;-33.956;151.076;2022-12-18T01:14:09;1.63;;;0.88;;
48647;SDS011;34437;-33.956;151.076;2022-12-18T01:16:32;3.03;;;0.80;;
48647;SDS011;34437;-33.956;151.076;2022-12-18T01:18:54;2.47;;;0.70;;
48647;SDS011;34437;-33.956;151.076;2022-12-18T01:21:17;3.10;;;1.00;;
48647;SDS011;34437;-33.956;151.076;2022-12-18T01:23:40;2.33;;;0.80;;
48647;SDS011;34437;-33.956;151.076;2022-12-18T01:26:06;3.22;;;0.68;;
48647;SDS011;34437;-33.956;151.076;2022-12-18T01:28:30;2.80;;;0.82;;
48647;SDS011;34437;-33.956;151.076;2022-12-18T01:30:52;2.63;;;1.02;;
48647;SDS011;34437;-33.956;151.076;2022-12-18T01:33:15;2.92;;;0.90;;
48647;SDS011;34437;-33.956;151.076;2022-12-18T01:35:43;3.53;;;0.85;;
48647;SDS011;34437;-33.956;151.076;2022-12-18T01:38:06;3.22;;;1.25;;
48647;SDS011;34437;-33.956;151.076;2022-12-18T01:40:28;3.92;;;1.02;;
48647;SDS011;34437;-33.956;151.076;2022-12-18T01:42:51;7.75;;;2.20;;
48647;SDS011;34437;-33.956;151.076;2022-12-18T01:47:46;6.10;;;1.52;;
48647;SDS011;34437;-33.956;151.076;2022-12-18T01:50:34;5.30;;;2.25;;
48647;SDS011;34437;-33.956;151.076;2022-12-18T01:53:12;3.50;;;1.65;;
48647;SDS011;34437;-33.956;151.076;2022-12-18T01:55:46;6.32;;;1.70;;
48647;SDS011;34437;-33.956;151.076;2022-12-18T01:58:17;4.05;;;0.95;;
48647;SDS011;34437;-33.956;151.076;2022-12-18T02:00:42;11.32;;;1.50;;
48647;SDS011;34437;-33.956;151.076;2022-12-18T02:03:05;5.40;;;1.48;;
48647;SDS011;34437;-33.956;151.076;2022-12-18T02:05:34;5.30;;;1.40;;
48647;SDS011;34437;-33.956;151.076;2022-12-18T02:10:31;4.30;;;1.60;;
48647;SDS011;34437;-33.956;151.076;2022-12-18T02:18:47;3.53;;;1.27;;
48647;SDS011;34437;-33.956;151.076;2022-12-18T02:23:56;3.85;;;1.00;;
48647;SDS011;34437;-33.956;151.076;2022-12-18T02:26:36;5.53;;;1.60;;
48647;SDS011;34437;-33.956;151.076;2022-12-18T02:29:16;4.90;;;1.52;;
48647;SDS011;34437;-33.956;151.076;2022-12-18T02:31:57;3.75;;;1.20;;
48647;SDS011;34437;-33.956;151.076;2022-12-18T02:34:22;3.92;;;1.88;;
48647;SDS011;34437;-33.956;151.076;2022-12-18T02:36:48;4.50;;;1.60;;
48647;SDS011;34437;-33.956;151.076;2022-12-18T02:39:13;4.00;;;1.75;;
48647;SDS011;34437;-33.956;151.076;2022-12-18T02:41:37;4.18;;;1.27;;
48647;SDS011;34437;-33.956;151.076;2022-12-18T02:44:07;2.92;;;1.45;;
48647;SDS011;34437;-33.956;151.076;2022-12-18T02:46:33;4.43;;;1.58;;
48647;SDS011;34437;-33.956;151.076;2022-12-18T02:49:02;4.13;;;1.02;;
48647;SDS011;34437;-33.956;151.076;2022-12-18T02:51:44;5.65;;;1.45;;
48647;SDS011;34437;-33.956;151.076;2022-12-18T02:54:24;5.47;;;1.40;;
48647;SDS011;34437;-33.956;151.076;2022-12-18T02:56:58;3.28;;;1.20;;
48647;SDS011;34437;-33.956;151.076;2022-12-18T02:59:39;2.75;;;0.98;;
48647;SDS011;34437;-33.956;151.076;2022-12-18T03:02:28;4.57;;;1.55;;
48647;SDS011;34437;-33.956;151.076;2022-12-18T03:05:17;4.18;;;1.50;;
48647;SDS011;34437;-33.956;151.076;2022-12-18T03:07:51;4.38;;;1.52;;
48647;SDS011;34437;-33.956;151.076;2022-12-18T03:10:16;4.40;;;1.48;;
48647;SDS011;34437;-33.956;151.076;2022-12-18T03:12:51;2.67;;;1.23;;
48647;SDS011;34437;-33.956;151.076;2022-12-18T03:15:29;3.10;;;1.20;;
48647;SDS011;34437;-33.956;151.076;2022-12-18T03:18:01;3.33;;;1.20;;
48647;SDS011;34437;-33.956;151.076;2022-12-18T03:20:29;2.28;;;1.00;;
48647;SDS011;34437;-33.956;151.076;2022-12-18T03:22:56;2.78;;;0.95;;
48647;SDS011;34437;-33.956;151.076;2022-12-18T03:25:32;3.33;;;0.93;;
48647;SDS011;34437;-33.956;151.076;2022-12-18T03:27:58;3.08;;;1.10;;
48647;SDS011;34437;-33.956;151.076;2022-12-18T03:30:23;3.92;;;1.23;;
48647;SDS011;34437;-33.956;151.076;2022-12-18T03:35:25;3.92;;;1.00;;
48647;SDS011;34437;-33.956;151.076;2022-12-18T03:37:50;3.10;;;0.82;;
48647;SDS011;34437;-33.956;151.076;2022-12-18T03:40:13;3.50;;;1.02;;
48647;SDS011;34437;-33.956;151.076;2022-12-18T03:42:44;1.95;;;0.60;;
48647;SDS011;34437;-33.956;151.076;2022-12-18T03:45:23;4.15;;;1.00;;
48647;SDS011;34437;-33.956;151.076;2022-12-18T03:50:48;3.35;;;1.27;;
48647;SDS011;34437;-33.956;151.076;2022-12-18T03:53:29;3.67;;;0.82;;
48647;SDS011;34437;-33.956;151.076;2022-12-18T03:58:27;3.40;;;1.08;;
48647;SDS011;34437;-33.956;151.076;2022-12-18T04:00:53;3.45;;;1.45;;
48647;SDS011;34437;-33.956;151.076;2022-12-18T04:03:20;3.80;;;1.17;;
48647;SDS011;34437;-33.956;151.076;2022-12-18T04:05:44;2.50;;;0.85;;
48647;SDS011;34437;-33.956;151.076;2022-12-18T04:08:09;2.42;;;1.50;;
48647;SDS011;34437;-33.956;151.076;2022-12-18T04:10:32;1.70;;;0.68;;
48647;SDS011;34437;-33.956;151.076;2022-12-18T04:12:58;1.77;;;0.88;;
48647;SDS011;34437;-33.956;151.076;2022-12-18T04:15:20;2.55;;;0.65;;
48647;SDS011;34437;-33.956;151.076;2022-12-18T04:17:47;2.78;;;0.80;;
48647;SDS011;34437;-33.956;151.076;2022-12-18T04:20:11;3.08;;;1.20;;
48647;SDS011;34437;-33.956;151.076;2022-12-18T04:22:34;1.80;;;0.88;;
48647;SDS011;34437;-33.956;151.076;2022-12-18T04:24:56;3.80;;;1.00;;
48647;SDS011;34437;-33.956;151.076;2022-12-18T04:27:19;3.67;;;1.20;;
48647;SDS011;34437;-33.956;151.076;2022-12-18T04:29:42;2.50;;;1.08;;
48647;SDS011;34437;-33.956;151.076;2022-12-18T04:32:04;3.38;;;1.13;;
48647;SDS011;34437;-33.956;151.076;2022-12-18T04:34:27;2.90;;;0.85;;
48647;SDS011;34437;-33.956;151.076;2022-12-18T04:36:49;2.88;;;1.08;;
48647;SDS011;34437;-33.956;151.076;2022-12-18T04:39:12;3.78;;;1.10;;
48647;SDS011;34437;-33.956;151.076;2022-12-18T04:41:35;2.92;;;0.90;;
48647;SDS011;34437;-33.956;151.076;2022-12-18T04:43:57;7.55;;;1.05;;
48647;SDS011;34437;-33.956;151.076;2022-12-18T04:46:20;4.40;;;1.08;;
48647;SDS011;34437;-33.956;151.076;2022-12-18T04:48:44;3.65;;;1.10;;
48647;SDS011;34437;-33.956;151.076;2022-12-18T04:51:08;4.47;;;1.38;;
48647;SDS011;34437;-33.956;151.076;2022-12-18T04:53:30;4.20;;;1.50;;
48647;SDS011;34437;-33.956;151.076;2022-12-18T04:56:06;2.05;;;0.70;;
48647;SDS011;34437;-33.956;151.076;2022-12-18T04:58:33;2.88;;;1.00;;
48647;SDS011;34437;-33.956;151.076;2022-12-18T05:00:56;3.63;;;1.20;;
48647;SDS011;34437;-33.956;151.076;2022-12-18T05:03:19;3.42;;;1.10;;
48647;SDS011;34437;-33.956;151.076;2022-12-18T05:05:41;1.95;;;0.75;;
48647;SDS011;34437;-33.956;151.076;2022-12-18T05:08:04;2.53;;;0.85;;
48647;SDS011;34437;-33.956;151.076;2022-12-18T05:10:26;0.85;;;0.60;;
48647;SDS011;34437;-33.956;151.076;2022-12-18T05:12:49;3.22;;;1.08;;
48647;SDS011;34437;-33.956;151.076;2022-12-18T05:15:21;1.95;;;0.75;;
48647;SDS011;34437;-33.956;151.076;2022-12-18T05:17:43;2.20;;;1.00;;
48647;SDS011;34437;-33.956;151.076;2022-12-18T05:20:06;4.00;;;1.17;;
48647;SDS011;34437;-33.956;151.076;2022-12-18T05:22:29;1.58;;;0.75;;
48647;SDS011;34437;-33.956;151.076;2022-12-18T05:24:51;2.15;;;0.70;;
48647;SDS011;34437;-33.956;151.076;2022-12-18T05:27:14;2.67;;;0.73;;
48647;SDS011;34437;-33.956;151.076;2022-12-18T05:29:36;1.08;;;0.60;;
48647;SDS011;34437;-33.956;151.076;2022-12-18T05:31:59;4.00;;;0.95;;
48647;SDS011;34437;-33.956;151.076;2022-12-18T05:34:22;2.45;;;0.80;;
48647;SDS011;34437;-33.956;151.076;2022-12-18T05:36:47;1.27;;;0.65;;
48647;SDS011;34437;-33.956;151.076;2022-12-18T05:39:09;1.60;;;0.82;;
48647;SDS011;34437;-33.956;151.076;2022-12-18T05:41:32;3.08;;;1.05;;
48647;SDS011;34437;-33.956;151.076;2022-12-18T05:43:55;4.50;;;0.98;;
48647;SDS011;34437;-33.956;151.076;2022-12-18T05:46:17;2.00;;;1.05;;
48647;SDS011;34437;-33.956;151.076;2022-12-18T05:48:40;3.25;;;0.90;;
48647;SDS011;34437;-33.956;151.076;2022-12-18T05:51:05;2.88;;;1.00;;
48647;SDS011;34437;-33.956;151.076;2022-12-18T05:53:29;3.15;;;1.00;;
48647;SDS011;34437;-33.956;151.076;2022-12-18T05:55:51;2.78;;;1.00;;
48647;SDS011;34437;-33.956;151.076;2022-12-18T05:58:15;2.78;;;1.05;;
48647;SDS011;34437;-33.956;151.076;2022-12-18T06:00:39;2.25;;;0.80;;
48647;SDS011;34437;-33.956;151.076;2022-12-18T06:03:04;2.90;;;0.90;;
48647;SDS011;34437;-33.956;151.076;2022-12-18T06:05:27;2.33;;;1.10;;
48647;SDS011;34437;-33.956;151.076;2022-12-18T06:07:49;4.22;;;1.10;;
48647;SDS011;34437;-33.956;151.076;2022-12-18T06:10:12;3.45;;;1.02;;
48647;SDS011;34437;-33.956;151.076;2022-12-18T06:12:35;3.40;;;1.20;;
48647;SDS011;34437;-33.956;151.076;2022-12-18T06:14:57;4.70;;;1.30;;
48647;SDS011;34437;-33.956;151.076;2022-12-18T06:17:20;6.93;;;1.67;;
48647;SDS011;34437;-33.956;151.076;2022-12-18T06:19:49;4.18;;;1.65;;
48647;SDS011;34437;-33.956;151.076;2022-12-18T06:22:11;3.95;;;1.48;;
48647;SDS011;34437;-33.956;151.076;2022-12-18T06:26:44;5.20;;;1.83;;
48647;SDS011;34437;-33.956;151.076;2022-12-18T06:29:23;4.22;;;2.03;;
48647;SDS011;34437;-33.956;151.076;2022-12-18T06:31:45;3.38;;;1.23;;
48647;SDS011;34437;-33.956;151.076;2022-12-18T06:34:08;3.35;;;1.48;;
48647;SDS011;34437;-33.956;151.076;2022-12-18T06:36:30;2.95;;;1.20;;
48647;SDS011;34437;-33.956;151.076;2022-12-18T06:38:53;3.05;;;1.30;;
48647;SDS011;34437;-33.956;151.076;2022-12-18T06:41:17;2.13;;;1.10;;
48647;SDS011;34437;-33.956;151.076;2022-12-18T06:43:41;4.30;;;1.50;;
48647;SDS011;34437;-33.956;151.076;2022-12-18T06:46:04;3.83;;;1.20;;
48647;SDS011;34437;-33.956;151.076;2022-12-18T06:48:27;3.87;;;1.20;;
48647;SDS011;34437;-33.956;151.076;2022-12-18T06:50:50;3.15;;;1.17;;
48647;SDS011;34437;-33.956;151.076;2022-12-18T06:53:13;2.42;;;1.10;;
48647;SDS011;34437;-33.956;151.076;2022-12-18T06:55:36;2.45;;;1.00;;
48647;SDS011;34437;-33.956;151.076;2022-12-18T06:57:59;4.35;;;1.10;;
48647;SDS011;34437;-33.956;151.076;2022-12-18T07:00:21;1.52;;;0.82;;
48647;SDS011;34437;-33.956;151.076;2022-12-18T07:02:44;3.42;;;0.80;;
48647;SDS011;34437;-33.956;151.076;2022-12-18T07:05:06;3.78;;;1.05;;
48647;SDS011;34437;-33.956;151.076;2022-12-18T07:07:29;3.20;;;1.10;;
48647;SDS011;34437;-33.956;151.076;2022-12-18T07:09:52;2.65;;;0.90;;
48647;SDS011;34437;-33.956;151.076;2022-12-18T07:12:14;4.07;;;1.00;;
48647;SDS011;34437;-33.956;151.076;2022-12-18T07:14:37;3.33;;;1.27;;
48647;SDS011;34437;-33.956;151.076;2022-12-18T07:16:59;4.63;;;1.33;;
48647;SDS011;34437;-33.956;151.076;2022-12-18T07:19:23;3.43;;;0.70;;
48647;SDS011;34437;-33.956;151.076;2022-12-18T07:21:45;4.35;;;1.15;;
48647;SDS011;34437;-33.956;151.076;2022-12-18T07:24:08;4.65;;;1.20;;
48647;SDS011;34437;-33.956;151.076;2022-12-18T07:26:31;3.15;;;0.95;;
48647;SDS011;34437;-33.956;151.076;2022-12-18T07:28:56;2.85;;;1.20;;
48647;SDS011;34437;-33.956;151.076;2022-12-18T07:31:20;3.60;;;1.13;;
48647;SDS011;34437;-33.956;151.076;2022-12-18T07:33:43;3.53;;;1.30;;
48647;SDS011;34437;-33.956;151.076;2022-12-18T07:36:07;2.70;;;1.00;;
48647;SDS011;34437;-33.956;151.076;2022-12-18T07:38:31;1.42;;;0.68;;
48647;SDS011;34437;-33.956;151.076;2022-12-18T07:40:54;2.10;;;0.90;;
48647;SDS011;34437;-33.956;151.076;2022-12-18T07:43:22;2.30;;;0.95;;
48647;SDS011;34437;-33.956;151.076;2022-12-18T07:45:45;2.65;;;1.17;;
48647;SDS011;34437;-33.956;151.076;2022-12-18T07:48:10;2.20;;;0.82;;
48647;SDS011;34437;-33.956;151.076;2022-12-18T07:50:33;4.10;;;1.08;;
48647;SDS011;34437;-33.956;151.076;2022-12-18T07:52:55;3.22;;;0.93;;
48647;SDS011;34437;-33.956;151.076;2022-12-18T07:55:18;4.32;;;1.27;;
48647;SDS011;34437;-33.956;151.076;2022-12-18T07:57:41;3.33;;;1.20;;
48647;SDS011;34437;-33.956;151.076;2022-12-18T08:00:03;3.25;;;1.48;;
48647;SDS011;34437;-33.956;151.076;2022-12-18T08:02:26;4.40;;;1.80;;
48647;SDS011;34437;-33.956;151.076;2022-12-18T08:04:52;5.43;;;1.20;;
48647;SDS011;34437;-33.956;151.076;2022-12-18T08:07:15;4.30;;;1.63;;
48647;SDS011;34437;-33.956;151.076;2022-12-18T08:09:37;2.75;;;0.90;;
48647;SDS011;34437;-33.956;151.076;2022-12-18T08:12:00;4.70;;;1.35;;
48647;SDS011;34437;-33.956;151.076;2022-12-18T08:14:23;5.85;;;1.15;;
48647;SDS011;34437;-33.956;151.076;2022-12-18T08:16:46;6.15;;;1.25;;
48647;SDS011;34437;-33.956;151.076;2022-12-18T08:19:08;3.15;;;1.38;;
48647;SDS011;34437;-33.956;151.076;2022-12-18T08:21:31;5.68;;;1.30;;
48647;SDS011;34437;-33.956;151.076;2022-12-18T08:23:54;2.95;;;1.10;;
48647;SDS011;34437;-33.956;151.076;2022-12-18T08:26:19;2.58;;;0.80;;
48647;SDS011;34437;-33.956;151.076;2022-12-18T08:28:42;1.88;;;0.95;;
48647;SDS011;34437;-33.956;151.076;2022-12-18T08:31:05;4.13;;;1.17;;
48647;SDS011;34437;-33.956;151.076;2022-12-18T08:33:29;4.43;;;1.10;;
48647;SDS011;34437;-33.956;151.076;2022-12-18T08:35:51;3.97;;;0.95;;
48647;SDS011;34437;-33.956;151.076;2022-12-18T08:38:14;3.15;;;1.00;;
48647;SDS011;34437;-33.956;151.076;2022-12-18T08:40:37;5.30;;;0.95;;
48647;SDS011;34437;-33.956;151.076;2022-12-18T08:42:59;3.28;;;1.00;;
48647;SDS011;34437;-33.956;151.076;2022-12-18T08:45:40;3.95;;;1.13;;
48647;SDS011;34437;-33.956;151.076;2022-12-18T08:48:03;2.30;;;0.82;;
48647;SDS011;34437;-33.956;151.076;2022-12-18T08:50:25;1.98;;;0.88;;
48647;SDS011;34437;-33.956;151.076;2022-12-18T08:52:48;2.90;;;0.95;;
48647;SDS011;34437;-33.956;151.076;2022-12-18T08:55:10;3.90;;;0.77;;
48647;SDS011;34437;-33.956;151.076;2022-12-18T08:57:33;3.15;;;1.10;;
48647;SDS011;34437;-33.956;151.076;2022-12-18T08:59:55;1.65;;;0.70;;
48647;SDS011;34437;-33.956;151.076;2022-12-18T09:02:18;2.05;;;0.82;;
48647;SDS011;34437;-33.956;151.076;2022-12-18T09:04:40;2.10;;;0.82;;
48647;SDS011;34437;-33.956;151.076;2022-12-18T09:07:03;2.17;;;0.93;;
48647;SDS011;34437;-33.956;151.076;2022-12-18T09:09:26;3.05;;;1.10;;
48647;SDS011;34437;-33.956;151.076;2022-12-18T09:11:48;1.15;;;0.75;;
48647;SDS011;34437;-33.956;151.076;2022-12-18T09:14:11;3.08;;;1.00;;
48647;SDS011;34437;-33.956;151.076;2022-12-18T09:16:33;2.90;;;1.15;;
48647;SDS011;34437;-33.956;151.076;2022-12-18T09:18:56;2.10;;;0.73;;
48647;SDS011;34437;-33.956;151.076;2022-12-18T09:21:22;3.13;;;0.98;;
48647;SDS011;34437;-33.956;151.076;2022-12-18T09:23:51;5.25;;;1.20;;
48647;SDS011;34437;-33.956;151.076;2022-12-18T09:26:14;4.18;;;1.08;;
48647;SDS011;34437;-33.956;151.076;2022-12-18T09:28:37;4.43;;;0.90;;
48647;SDS011;34437;-33.956;151.076;2022-12-18T09:31:03;4.50;;;0.98;;
48647;SDS011;34437;-33.956;151.076;2022-12-18T09:33:28;2.92;;;0.70;;
48647;SDS011;34437;-33.956;151.076;2022-12-18T09:35:50;2.00;;;0.88;;
48647;SDS011;34437;-33.956;151.076;2022-12-18T09:38:14;2.80;;;1.17;;
48647;SDS011;34437;-33.956;151.076;2022-12-18T09:40:42;3.40;;;0.98;;
48647;SDS011;34437;-33.956;151.076;2022-12-18T09:43:21;1.52;;;1.00;;
48647;SDS011;34437;-33.956;151.076;2022-12-18T09:46:06;2.65;;;0.80;;
48647;SDS011;34437;-33.956;151.076;2022-12-18T09:48:32;2.53;;;0.80;;
48647;SDS011;34437;-33.956;151.076;2022-12-18T09:51:00;3.25;;;0.90;;
48647;SDS011;34437;-33.956;151.076;2022-12-18T09:53:33;3.70;;;0.90;;
48647;SDS011;34437;-33.956;151.076;2022-12-18T09:55:58;3.97;;;1.13;;
48647;SDS011;34437;-33.956;151.076;2022-12-18T09:58:30;2.25;;;0.80;;
48647;SDS011;34437;-33.956;151.076;2022-12-18T10:01:18;2.33;;;1.02;;
48647;SDS011;34437;-33.956;151.076;2022-12-18T10:03:43;2.03;;;0.88;;
48647;SDS011;34437;-33.956;151.076;2022-12-18T10:19:37;2.03;;;1.13;;
48647;SDS011;34437;-33.956;151.076;2022-12-18T10:22:21;2.17;;;1.00;;
48647;SDS011;34437;-33.956;151.076;2022-12-18T10:27:34;3.72;;;1.10;;
48647;SDS011;34437;-33.956;151.076;2022-12-18T10:29:57;3.45;;;0.80;;
48647;SDS011;34437;-33.956;151.076;2022-12-18T10:32:25;2.78;;;1.00;;
48647;SDS011;34437;-33.956;151.076;2022-12-18T10:34:51;3.08;;;1.23;;
48647;SDS011;34437;-33.956;151.076;2022-12-18T10:37:19;3.45;;;1.38;;
48647;SDS011;34437;-33.956;151.076;2022-12-18T10:39:44;2.88;;;1.17;;
48647;SDS011;34437;-33.956;151.076;2022-12-18T10:42:16;4.15;;;1.13;;
48647;SDS011;34437;-33.956;151.076;2022-12-18T10:44:40;2.58;;;1.00;;
48647;SDS011;34437;-33.956;151.076;2022-12-18T10:47:04;2.97;;;1.35;;
48647;SDS011;34437;-33.956;151.076;2022-12-18T10:49:32;2.50;;;1.08;;
48647;SDS011;34437;-33.956;151.076;2022-12-18T10:54:28;3.53;;;1.05;;
48647;SDS011;34437;-33.956;151.076;2022-12-18T10:56:52;4.80;;;1.10;;
48647;SDS011;34437;-33.956;151.076;2022-12-18T10:59:52;2.67;;;0.90;;
48647;SDS011;34437;-33.956;151.076;2022-12-18T11:02:35;2.83;;;1.30;;
48647;SDS011;34437;-33.956;151.076;2022-12-18T11:04:59;2.65;;;1.23;;
48647;SDS011;34437;-33.956;151.076;2022-12-18T11:07:22;3.28;;;1.20;;
48647;SDS011;34437;-33.956;151.076;2022-12-18T11:09:45;3.60;;;1.30;;
48647;SDS011;34437;-33.956;151.076;2022-12-18T11:12:23;4.15;;;1.20;;
48647;SDS011;34437;-33.956;151.076;2022-12-18T11:14:47;3.05;;;1.13;;
48647;SDS011;34437;-33.956;151.076;2022-12-18T11:17:19;3.53;;;1.10;;
48647;SDS011;34437;-33.956;151.076;2022-12-18T11:19:58;5.80;;;1.38;;
48647;SDS011;34437;-33.956;151.076;2022-12-18T11:22:32;3.33;;;0.85;;
48647;SDS011;34437;-33.956;151.076;2022-12-18T11:27:22;3.38;;;1.27;;
48647;SDS011;34437;-33.956;151.076;2022-12-18T11:29:46;3.63;;;1.20;;
48647;SDS011;34437;-33.956;151.076;2022-12-18T11:35:04;4.32;;;1.13;;
48647;SDS011;34437;-33.956;151.076;2022-12-18T11:37:43;8.77;;;1.95;;
48647;SDS011;34437;-33.956;151.076;2022-12-18T11:45:40;3.33;;;1.20;;
48647;SDS011;34437;-33.956;151.076;2022-12-18T11:50:49;6.13;;;1.05;;
48647;SDS011;34437;-33.956;151.076;2022-12-18T11:53:13;3.15;;;0.95;;
48647;SDS011;34437;-33.956;151.076;2022-12-18T11:55:47;2.05;;;0.93;;
48647;SDS011;34437;-33.956;151.076;2022-12-18T12:01:16;3.57;;;1.10;;
48647;SDS011;34437;-33.956;151.076;2022-12-18T12:09:35;5.40;;;1.25;;
48647;SDS011;34437;-33.956;151.076;2022-12-18T12:12:14;3.08;;;1.05;;
48647;SDS011;34437;-33.956;151.076;2022-12-18T12:14:42;5.95;;;1.15;;
48647;SDS011;34437;-33.956;151.076;2022-12-18T12:20:00;4.78;;;1.38;;
48647;SDS011;34437;-33.956;151.076;2022-12-18T12:25:01;3.63;;;1.40;;
48647;SDS011;34437;-33.956;151.076;2022-12-18T12:40:10;10.05;;;1.92;;
48647;SDS011;34437;-33.956;151.076;2022-12-18T12:42:45;2.35;;;0.98;;
48647;SDS011;34437;-33.956;151.076;2022-12-18T12:45:49;3.08;;;1.10;;
48647;SDS011;34437;-33.956;151.076;2022-12-18T12:50:42;5.20;;;1.38;;
48647;SDS011;34437;-33.956;151.076;2022-12-18T12:53:06;8.57;;;1.48;;
48647;SDS011;34437;-33.956;151.076;2022-12-18T12:55:36;4.90;;;1.20;;
48647;SDS011;34437;-33.956;151.076;2022-12-18T13:00:22;4.50;;;1.60;;
48647;SDS011;34437;-33.956;151.076;2022-12-18T13:05:50;3.40;;;1.20;;
48647;SDS011;34437;-33.956;151.076;2022-12-18T13:08:24;4.10;;;1.20;;
48647;SDS011;34437;-33.956;151.076;2022-12-18T13:10:48;4.20;;;1.10;;
48647;SDS011;34437;-33.956;151.076;2022-12-18T13:13:38;4.05;;;1.10;;
48647;SDS011;34437;-33.956;151.076;2022-12-18T13:16:13;3.40;;;1.05;;
48647;SDS011;34437;-33.956;151.076;2022-12-18T13:18:48;4.68;;;1.10;;
48647;SDS011;34437;-33.956;151.076;2022-12-18T13:21:29;3.00;;;1.15;;
48647;SDS011;34437;-33.956;151.076;2022-12-18T13:31:07;3.28;;;1.30;;
48647;SDS011;34437;-33.956;151.076;2022-12-18T13:36:13;5.25;;;1.42;;
48647;SDS011;34437;-33.956;151.076;2022-12-18T13:41:37;3.20;;;1.30;;
48647;SDS011;34437;-33.956;151.076;2022-12-18T13:46:55;4.70;;;1.05;;
48647;SDS011;34437;-33.956;151.076;2022-12-18T13:51:44;4.47;;;1.48;;
48647;SDS011;34437;-33.956;151.076;2022-12-18T13:54:20;6.07;;;1.65;;
48647;SDS011;34437;-33.956;151.076;2022-12-18T13:56:51;7.97;;;1.95;;
48647;SDS011;34437;-33.956;151.076;2022-12-18T13:59:15;6.60;;;1.73;;
48647;SDS011;34437;-33.956;151.076;2022-12-18T14:01:45;5.55;;;1.88;;
48647;SDS011;34437;-33.956;151.076;2022-12-18T14:04:20;3.97;;;1.80;;
48647;SDS011;34437;-33.956;151.076;2022-12-18T14:06:46;6.15;;;1.98;;
48647;SDS011;34437;-33.956;151.076;2022-12-18T14:09:14;5.20;;;2.08;;
48647;SDS011;34437;-33.956;151.076;2022-12-18T14:11:40;4.47;;;2.00;;
48647;SDS011;34437;-33.956;151.076;2022-12-18T14:14:07;6.57;;;2.22;;
48647;SDS011;34437;-33.956;151.076;2022-12-18T14:16:30;6.65;;;2.05;;
48647;SDS011;34437;-33.956;151.076;2022-12-18T14:21:23;7.95;;;2.50;;
48647;SDS011;34437;-33.956;151.076;2022-12-18T14:23:48;7.30;;;2.38;;
48647;SDS011;34437;-33.956;151.076;2022-12-18T14:26:25;6.07;;;1.65;;
48647;SDS011;34437;-33.956;151.076;2022-12-18T14:28:50;8.45;;;2.38;;
48647;SDS011;34437;-33.956;151.076;2022-12-18T14:31:21;10.00;;;2.20;;
48647;SDS011;34437;-33.956;151.076;2022-12-18T14:33:45;8.90;;;2.17;;
48647;SDS011;34437;-33.956;151.076;2022-12-18T14:36:14;5.47;;;2.13;;
48647;SDS011;34437;-33.956;151.076;2022-12-18T14:38:43;6.55;;;1.85;;
48647;SDS011;34437;-33.956;151.076;2022-12-18T14:41:13;6.82;;;2.08;;
48647;SDS011;34437;-33.956;151.076;2022-12-18T14:43:38;5.78;;;1.73;;
48647;SDS011;34437;-33.956;151.076;2022-12-18T14:46:03;6.30;;;2.50;;
48647;SDS011;34437;-33.956;151.076;2022-12-18T14:48:46;5.80;;;2.33;;
48647;SDS011;34437;-33.956;151.076;2022-12-18T14:51:15;7.03;;;1.88;;
48647;SDS011;34437;-33.956;151.076;2022-12-18T14:54:00;6.47;;;2.20;;
48647;SDS011;34437;-33.956;151.076;2022-12-18T14:56:35;9.02;;;2.40;;
48647;SDS011;34437;-33.956;151.076;2022-12-18T14:59:04;6.45;;;1.90;;
48647;SDS011;34437;-33.956;151.076;2022-12-18T15:01:37;6.47;;;1.70;;
48647;SDS011;34437;-33.956;151.076;2022-12-18T15:04:21;5.85;;;1.70;;
48647;SDS011;34437;-33.956;151.076;2022-12-18T15:06:45;4.80;;;1.75;;
48647;SDS011;34437;-33.956;151.076;2022-12-18T15:09:23;10.98;;;2.10;;
48647;SDS011;34437;-33.956;151.076;2022-12-18T15:11:46;5.25;;;1.90;;
48647;SDS011;34437;-33.956;151.076;2022-12-18T15:16:55;19.67;;;2.75;;
48647;SDS011;34437;-33.956;151.076;2022-12-18T15:19:19;6.50;;;1.83;;
48647;SDS011;34437;-33.956;151.076;2022-12-18T15:21:43;4.80;;;1.92;;
48647;SDS011;34437;-33.956;151.076;2022-12-18T15:24:13;4.50;;;2.10;;
48647;SDS011;34437;-33.956;151.076;2022-12-18T15:26:43;7.03;;;1.70;;
48647;SDS011;34437;-33.956;151.076;2022-12-18T15:29:15;6.15;;;2.00;;
48647;SDS011;34437;-33.956;151.076;2022-12-18T15:31:41;8.18;;;1.90;;
48647;SDS011;34437;-33.956;151.076;2022-12-18T15:34:11;5.22;;;1.90;;
48647;SDS011;34437;-33.956;151.076;2022-12-18T15:36:40;7.40;;;2.05;;
48647;SDS011;34437;-33.956;151.076;2022-12-18T15:39:03;5.28;;;2.03;;
48647;SDS011;34437;-33.956;151.076;2022-12-18T15:41:25;5.40;;;1.95;;
48647;SDS011;34437;-33.956;151.076;2022-12-18T15:43:49;6.53;;;2.00;;
48647;SDS011;34437;-33.956;151.076;2022-12-18T15:46:14;5.53;;;1.60;;
48647;SDS011;34437;-33.956;151.076;2022-12-18T15:48:42;8.43;;;2.45;;
48647;SDS011;34437;-33.956;151.076;2022-12-18T15:51:16;6.55;;;2.30;;
48647;SDS011;34437;-33.956;151.076;2022-12-18T15:53:42;8.65;;;2.47;;
48647;SDS011;34437;-33.956;151.076;2022-12-18T15:56:09;4.22;;;1.42;;
48647;SDS011;34437;-33.956;151.076;2022-12-18T15:58:51;6.13;;;1.88;;